Time;durP1;ratioP1;P1;durP2;ratioP2;P2;SDS_P1;SDS_P2;PMS_P1;PMS_P2;Temp;Humidity;BMP_temperature;BMP_pressure;BME280_temperature;BME280_humidity;BME280_pressure;Samples;Min_cycle;Max_cycle;Signal;HPM_P1;HPM_P2
2023/12/27 00:01:59;;;;;;;7.13;4.10;;;;;;;5.15;82.68;98788.38;4941678;28;20115;-73
2023/12/27 00:04:24;;;;;;;5.97;3.70;;;;;;;5.16;82.77;98799.91;4947109;28;20028;-73
2023/12/27 00:06:51;;;;;;;10.13;3.78;;;;;;;5.16;82.75;98799.91;4957745;28;20456;-73
2023/12/27 00:09:16;;;;;;;7.93;4.03;;;;;;;5.15;82.11;98803.56;4921417;28;20439;-73
2023/12/27 00:11:42;;;;;;;9.65;4.25;;;;;;;4.99;82.92;98798.53;4933915;28;20030;-72
2023/12/27 00:14:07;;;;;;;8.80;5.22;;;;;;;5.01;82.96;98802.66;4949103;28;20046;-71
2023/12/27 00:16:33;;;;;;;8.90;4.63;;;;;;;4.95;82.68;98808.75;4950839;28;20376;-74
2023/12/27 00:18:58;;;;;;;12.48;5.50;;;;;;;4.69;82.83;98803.22;4922781;28;20182;-73
2023/12/27 00:21:24;;;;;;;10.23;4.70;;;;;;;4.51;82.36;98789.50;4950427;28;20099;-75
2023/12/27 00:23:49;;;;;;;11.60;5.70;;;;;;;4.60;82.52;98809.69;4944035;28;20432;-75
2023/12/27 00:26:15;;;;;;;9.25;5.85;;;;;;;4.49;82.72;98812.84;4952688;28;20031;-74
2023/12/27 00:28:40;;;;;;;10.93;6.05;;;;;;;4.51;82.65;98811.66;4950071;28;20034;-73
2023/12/27 00:31:05;;;;;;;8.52;5.10;;;;;;;4.50;82.83;98819.84;4940164;29;20110;-72
2023/12/27 00:33:31;;;;;;;9.60;5.63;;;;;;;4.59;82.80;98830.22;4956106;28;20291;-75
2023/12/27 00:35:56;;;;;;;10.95;5.40;;;;;;;4.53;82.59;98816.78;4926364;29;20439;-75
2023/12/27 00:38:21;;;;;;;11.43;5.03;;;;;;;4.45;82.60;98792.94;4926518;29;20048;-75
2023/12/27 00:40:47;;;;;;;10.30;4.72;;;;;;;4.54;82.71;98805.13;4931778;29;20180;-73
2023/12/27 00:43:12;;;;;;;9.82;6.10;;;;;;;4.56;82.94;98808.41;4935601;29;20039;-75
2023/12/27 00:45:38;;;;;;;9.77;6.28;;;;;;;4.46;82.49;98815.91;4937167;28;20027;-75
2023/12/27 00:48:03;;;;;;;11.00;6.93;;;;;;;4.58;83.17;98838.38;4914571;29;20039;-74
2023/12/27 00:50:29;;;;;;;8.32;6.00;;;;;;;4.48;82.57;98820.03;4916825;29;20031;-75
2023/12/27 00:52:54;;;;;;;10.25;5.07;;;;;;;4.57;83.22;98837.59;4925411;28;20050;-74
2023/12/27 00:55:19;;;;;;;10.38;5.32;;;;;;;4.58;83.02;98839.22;4927326;28;20075;-75
2023/12/27 00:57:45;;;;;;;9.35;4.53;;;;;;;4.61;83.36;98843.34;4913956;28;20043;-74
2023/12/27 01:00:11;;;;;;;16.08;5.68;;;;;;;4.57;83.09;98842.91;4930095;29;20034;-74
2023/12/27 01:02:36;;;;;;;9.85;4.40;;;;;;;4.54;82.99;98839.78;4956009;28;20367;-74
2023/12/27 01:05:02;;;;;;;10.57;5.45;;;;;;;4.60;83.59;98847.00;4965408;28;20059;-72
2023/12/27 01:07:27;;;;;;;8.25;5.70;;;;;;;4.39;83.41;98841.69;4938101;28;20035;-74
2023/12/27 01:09:53;;;;;;;11.80;5.65;;;;;;;4.31;83.31;98841.81;4934953;29;20035;-72
2023/12/27 01:12:19;;;;;;;12.27;5.80;;;;;;;4.20;83.26;98835.94;4924497;29;20071;-72
2023/12/27 01:14:45;;;;;;;10.85;4.97;;;;;;;4.21;83.56;98842.09;4946329;28;20557;-71
2023/12/27 01:17:10;;;;;;;9.90;5.72;;;;;;;4.25;83.55;98854.03;4953212;28;20039;-74
2023/12/27 01:19:36;;;;;;;9.00;5.60;;;;;;;4.29;82.85;98854.50;4961433;28;20434;-72
2023/12/27 01:22:02;;;;;;;9.63;5.70;;;;;;;4.24;82.82;98851.56;4925641;29;20086;-74
2023/12/27 01:24:27;;;;;;;7.72;4.50;;;;;;;4.08;83.78;98850.75;4934067;28;20082;-74
2023/12/27 01:26:53;;;;;;;11.13;5.07;;;;;;;3.99;83.34;98827.91;4936993;28;20070;-74
2023/12/27 01:29:18;;;;;;;7.18;4.50;;;;;;;4.09;83.22;98848.94;4930080;28;20027;-73
2023/12/27 01:31:44;;;;;;;10.60;5.07;;;;;;;4.13;83.49;98863.56;4936001;28;20034;-72
2023/12/27 01:34:09;;;;;;;10.60;5.18;;;;;;;3.93;83.50;98834.00;4938888;28;20077;-74
2023/12/27 01:36:35;;;;;;;10.15;4.75;;;;;;;4.04;83.08;98868.16;4937643;28;20049;-74
2023/12/27 01:39:00;;;;;;;11.48;5.05;;;;;;;3.92;83.67;98858.97;4959488;28;20488;-74
2023/12/27 01:41:26;;;;;;;11.05;4.78;;;;;;;3.92;83.39;98861.63;4920979;28;20498;-74
2023/12/27 01:43:51;;;;;;;8.65;5.18;;;;;;;3.82;83.01;98845.13;4951695;28;20027;-74
2023/12/27 01:46:17;;;;;;;12.32;5.20;;;;;;;3.80;83.34;98876.47;4957237;28;20035;-74
2023/12/27 01:48:43;;;;;;;11.88;6.15;;;;;;;3.79;83.58;98877.47;4937753;28;20027;-74
2023/12/27 01:51:09;;;;;;;11.70;5.40;;;;;;;3.61;84.06;98862.88;4930301;29;20557;-74
2023/12/27 01:53:34;;;;;;;9.77;5.70;;;;;;;3.56;84.06;98866.09;4931983;29;20084;-73
2023/12/27 01:56:01;;;;;;;8.32;4.85;;;;;;;3.70;83.62;98875.91;4947307;29;20047;-73
2023/12/27 01:58:26;;;;;;;11.13;5.22;;;;;;;3.72;83.57;98873.06;4945779;28;20023;-74
2023/12/27 02:00:52;;;;;;;11.77;5.95;;;;;;;3.69;83.30;98868.91;4938959;28;20573;-74
2023/12/27 02:03:17;;;;;;;12.52;5.75;;;;;;;3.78;83.20;98885.66;4932070;28;20020;-74
2023/12/27 02:05:44;;;;;;;9.70;4.65;;;;;;;3.80;83.72;98892.44;4953484;28;20081;-72
2023/12/27 02:08:11;;;;;;;7.93;5.22;;;;;;;3.83;83.91;98892.06;4943697;29;20078;-74
2023/12/27 02:10:36;;;;;;;9.13;5.28;;;;;;;3.77;83.80;98884.81;4925620;28;20058;-74
2023/12/27 02:13:06;;;;;;;8.65;4.80;;;;;;;3.90;83.60;98894.81;4931576;28;20061;-74
2023/12/27 02:15:31;;;;;;;10.98;4.70;;;;;;;3.87;83.90;98885.38;4919248;29;20045;-73
2023/12/27 02:17:59;;;;;;;14.00;5.03;;;;;;;3.83;83.79;98876.06;4915185;29;20023;-74
2023/12/27 02:20:25;;;;;;;7.60;4.80;;;;;;;3.95;83.81;98882.59;4955523;28;20482;-74
2023/12/27 02:22:52;;;;;;;8.73;4.72;;;;;;;4.01;83.01;98883.69;4928029;29;20034;-74
2023/12/27 02:25:18;;;;;;;8.73;4.50;;;;;;;3.93;83.42;98865.97;4944628;29;20114;-75
2023/12/27 02:27:45;;;;;;;14.85;5.40;;;;;;;3.84;83.68;98875.06;4939732;29;20162;-74
2023/12/27 02:30:20;;;;;;;11.48;5.32;;;;;;;3.70;83.70;98865.25;4929825;29;20035;-74
2023/12/27 02:32:46;;;;;;;;;;;;;;;3.55;84.33;98875.06;4947941;28;20035;-75
2023/12/27 02:35:12;;;;;;;9.27;5.07;;;;;;;3.82;84.07;98879.75;4903685;29;20065;-73
2023/12/27 02:37:37;;;;;;;10.90;5.80;;;;;;;3.76;83.95;98858.34;4932990;28;20576;-73
2023/12/27 02:40:03;;;;;;;10.45;4.75;;;;;;;3.88;83.54;98879.00;4931807;29;20446;-73
2023/12/27 02:42:32;;;;;;;7.38;4.63;;;;;;;3.89;83.09;98869.19;4931201;28;20049;-74
2023/12/27 02:44:57;;;;;;;9.95;4.53;;;;;;;3.93;83.62;98865.13;4922108;29;20023;-74
2023/12/27 02:47:23;;;;;;;9.85;5.15;;;;;;;3.87;83.41;98840.09;4929676;28;20036;-74
2023/12/27 02:49:48;;;;;;;7.38;4.45;;;;;;;3.76;83.23;98816.56;4945648;28;20402;-74
2023/12/27 02:52:13;;;;;;;8.60;4.97;;;;;;;4.01;83.84;98847.19;4938925;28;20046;-71
2023/12/27 02:54:39;;;;;;;9.07;4.80;;;;;;;4.02;83.51;98854.19;4925569;29;20035;-73
2023/12/27 02:57:06;;;;;;;9.25;4.55;;;;;;;4.02;83.57;98853.34;4911411;29;20154;-74
2023/12/27 02:59:31;;;;;;;8.77;4.43;;;;;;;3.95;83.40;98839.97;4943704;28;20023;-74
2023/12/27 03:01:57;;;;;;;8.85;5.05;;;;;;;4.03;83.70;98839.03;4949253;28;20065;-72
2023/12/27 03:04:22;;;;;;;7.00;4.72;;;;;;;4.03;83.45;98823.88;4929776;28;20047;-71
2023/12/27 03:06:47;;;;;;;7.70;4.63;;;;;;;4.01;82.95;98836.53;4930391;29;20039;-72
2023/12/27 03:09:13;;;;;;;8.35;4.88;;;;;;;3.89;83.65;98811.41;4929266;29;20038;-72
2023/12/27 03:11:38;;;;;;;10.38;4.90;;;;;;;4.02;83.49;98830.22;4927431;28;20042;-72
2023/12/27 03:14:04;;;;;;;9.52;5.35;;;;;;;4.03;83.59;98833.69;4925910;29;20110;-72
2023/12/27 03:16:31;;;;;;;7.75;4.75;;;;;;;3.96;84.03;98812.31;4935400;29;20035;-72
2023/12/27 03:18:56;;;;;;;7.03;4.72;;;;;;;4.00;83.49;98818.06;4948888;28;20024;-72
2023/12/27 03:21:22;;;;;;;9.52;4.90;;;;;;;3.96;83.71;98807.00;4925830;29;20042;-71
2023/12/27 03:23:47;;;;;;;9.82;4.40;;;;;;;4.02;83.96;98816.88;4954409;28;20050;-72
2023/12/27 03:26:15;;;;;;;10.80;4.70;;;;;;;4.03;83.83;98813.22;4925494;29;20048;-71
2023/12/27 03:28:40;;;;;;;9.40;4.35;;;;;;;4.03;84.05;98821.22;4945436;29;20019;-71
2023/12/27 03:31:06;;;;;;;7.68;4.85;;;;;;;3.96;84.00;98811.47;4926208;29;20086;-72
2023/12/27 03:33:32;;;;;;;10.57;5.45;;;;;;;3.90;84.16;98815.72;4938064;28;20031;-73
2023/12/27 03:35:57;;;;;;;13.90;5.20;;;;;;;3.90;84.13;98834.34;4921202;29;20031;-73
2023/12/27 03:38:23;;;;;;;11.98;4.82;;;;;;;3.77;83.97;98823.56;4947174;28;20521;-72
2023/12/27 03:40:49;;;;;;;8.40;5.00;;;;;;;3.90;84.14;98845.00;4928129;29;20408;-72
2023/12/27 03:43:14;;;;;;;11.23;4.95;;;;;;;3.83;84.50;98832.63;4919199;29;20028;-72
2023/12/27 03:45:40;;;;;;;9.48;4.47;;;;;;;3.78;84.64;98814.53;4927758;28;20042;-73
2023/12/27 03:48:05;;;;;;;8.07;4.30;;;;;;;3.96;83.99;98838.97;4924446;29;20496;-72
2023/12/27 03:50:31;;;;;;;9.75;5.05;;;;;;;3.98;84.17;98842.25;4920176;29;20634;-71
2023/12/27 03:52:56;;;;;;;9.13;4.70;;;;;;;3.96;84.32;98838.13;4911752;29;20043;-71
2023/12/27 03:55:24;;;;;;;13.85;5.18;;;;;;;3.98;84.69;98850.25;4947497;28;20047;-71
2023/12/27 03:57:49;;;;;;;9.88;5.60;;;;;;;3.90;85.12;98839.69;4932665;29;20026;-70
2023/12/27 04:00:15;;;;;;;12.73;7.88;;;;;;;3.88;85.15;98844.38;4924777;29;20047;-71
2023/12/27 04:02:41;;;;;;;15.38;9.35;;;;;;;3.96;85.29;98862.94;4946131;29;20506;-72
2023/12/27 04:05:07;;;;;;;13.02;8.48;;;;;;;3.98;84.52;98865.41;4948203;28;20079;-72
2023/12/27 04:07:32;;;;;;;14.18;5.78;;;;;;;3.92;84.94;98858.97;4941519;28;20047;-73
2023/12/27 04:09:57;;;;;;;12.10;5.93;;;;;;;3.82;85.21;98850.47;4941598;28;20038;-71
2023/12/27 04:12:24;;;;;;;12.13;5.20;;;;;;;3.93;85.09;98871.28;4940574;28;20082;-73
2023/12/27 04:14:49;;;;;;;9.15;5.55;;;;;;;3.94;85.05;98856.97;4946955;28;20039;-71
2023/12/27 04:17:16;;;;;;;8.75;5.05;;;;;;;3.97;85.08;98856.59;4921889;28;20447;-73
2023/12/27 04:19:41;;;;;;;12.00;5.32;;;;;;;3.92;85.52;98848.31;4945021;28;20040;-72
2023/12/27 04:22:07;;;;;;;10.18;5.22;;;;;;;3.93;84.99;98855.31;4930665;29;20042;-72
2023/12/27 04:24:32;;;;;;;10.18;4.70;;;;;;;3.95;85.34;98842.63;4926436;28;20039;-73
2023/12/27 04:26:57;;;;;;;11.98;5.50;;;;;;;3.96;84.92;98828.31;4942886;28;20019;-73
2023/12/27 04:29:23;;;;;;;12.82;6.07;;;;;;;3.95;84.60;98817.81;4924682;28;20059;-72
2023/12/27 04:31:49;;;;;;;11.20;5.88;;;;;;;4.05;84.68;98837.84;4928517;28;20513;-72
2023/12/27 04:34:14;;;;;;;8.00;5.75;;;;;;;3.98;84.69;98828.94;4922773;29;20039;-72
2023/12/27 04:36:39;;;;;;;11.25;5.40;;;;;;;3.99;84.72;98827.09;4943520;28;20037;-73
2023/12/27 04:39:06;;;;;;;9.35;5.90;;;;;;;3.96;84.73;98832.81;4947753;28;20050;-74
2023/12/27 04:41:32;;;;;;;8.05;4.97;;;;;;;3.85;84.64;98820.75;4932240;29;20024;-73
2023/12/27 04:43:57;;;;;;;8.18;5.28;;;;;;;3.89;84.55;98832.72;4948119;28;20512;-71
2023/12/27 04:46:22;;;;;;;10.30;5.00;;;;;;;3.81;84.41;98811.50;4928270;28;20031;-72
2023/12/27 04:48:48;;;;;;;9.98;5.60;;;;;;;3.84;84.45;98818.31;4932821;29;20051;-73
2023/12/27 04:51:13;;;;;;;13.18;5.78;;;;;;;3.83;84.13;98812.13;4939630;29;20448;-71
2023/12/27 04:53:38;;;;;;;8.45;5.05;;;;;;;3.75;84.03;98798.94;4924680;28;20042;-71
2023/12/27 04:56:04;;;;;;;13.40;5.65;;;;;;;3.84;84.03;98808.47;4929705;29;20522;-71
2023/12/27 04:58:35;;;;;;;8.73;4.95;;;;;;;3.86;84.29;98811.78;4931520;29;20038;-71
2023/12/27 05:01:05;;;;;;;10.77;5.10;;;;;;;3.90;84.16;98812.22;4926188;29;20042;-71
2023/12/27 05:03:35;;;;;;;14.13;6.15;;;;;;;3.89;84.32;98806.09;4944766;28;20063;-71
2023/12/27 05:06:01;;;;;;;13.90;5.53;;;;;;;3.81;84.27;98806.19;4928903;29;20567;-71
2023/12/27 05:08:28;;;;;;;11.93;5.95;;;;;;;3.81;84.16;98808.84;4929460;28;20059;-72
2023/12/27 05:10:53;;;;;;;9.57;5.40;;;;;;;3.76;84.45;98813.91;4939810;29;20046;-71
2023/12/27 05:13:20;;;;;;;9.82;5.40;;;;;;;3.79;84.38;98821.53;4908105;28;20495;-71
2023/12/27 05:15:46;;;;;;;11.93;6.30;;;;;;;3.80;84.71;98823.19;4952020;28;20108;-72
2023/12/27 05:18:12;;;;;;;11.05;5.97;;;;;;;3.80;84.98;98828.50;4946276;28;20023;-71
2023/12/27 05:20:37;;;;;;;11.63;6.60;;;;;;;3.82;84.80;98826.50;4926754;28;20035;-72
2023/12/27 05:23:03;;;;;;;10.43;6.60;;;;;;;3.84;85.41;98835.13;4939398;28;20459;-70
2023/12/27 05:25:28;;;;;;;13.32;6.47;;;;;;;3.73;85.65;98819.63;4951853;28;20034;-72
2023/12/27 05:27:53;;;;;;;11.85;6.70;;;;;;;3.87;85.32;98829.44;4929145;28;20552;-70
2023/12/27 05:30:19;;;;;;;13.32;7.93;;;;;;;3.87;85.36;98826.75;4950532;28;20047;-70
2023/12/27 05:32:44;;;;;;;9.27;6.88;;;;;;;3.94;85.44;98841.00;4939552;29;20372;-70
2023/12/27 05:35:10;;;;;;;14.23;7.13;;;;;;;3.99;85.36;98832.44;4943717;28;20042;-71
2023/12/27 05:37:35;;;;;;;13.05;6.47;;;;;;;3.95;84.97;98834.63;4951534;28;20484;-69
2023/12/27 05:40:01;;;;;;;11.23;6.47;;;;;;;4.05;85.15;98843.16;4941382;28;20054;-69
2023/12/27 05:42:26;;;;;;;12.25;7.03;;;;;;;3.97;85.29;98829.94;4951342;28;20070;-70
2023/12/27 05:44:52;;;;;;;10.98;6.60;;;;;;;4.06;85.67;98836.81;4931729;28;20042;-70
2023/12/27 05:47:18;;;;;;;11.43;6.68;;;;;;;4.03;85.37;98829.22;4945784;28;20029;-69
2023/12/27 05:49:43;;;;;;;12.15;6.13;;;;;;;4.02;85.55;98837.38;4951701;28;20039;-70
2023/12/27 05:52:09;;;;;;;9.88;6.78;;;;;;;3.89;85.20;98819.41;4946452;28;20074;-71
2023/12/27 05:54:34;;;;;;;12.25;7.10;;;;;;;3.93;85.34;98828.66;4933534;28;20042;-71
2023/12/27 05:56:59;;;;;;;11.80;7.55;;;;;;;3.92;85.87;98827.00;4946047;28;20422;-69
2023/12/27 05:59:25;;;;;;;11.90;6.65;;;;;;;3.88;85.53;98828.41;4949204;28;20044;-70
2023/12/27 06:01:52;;;;;;;12.00;6.75;;;;;;;3.76;85.22;98811.22;4945814;28;20075;-70
2023/12/27 06:04:18;;;;;;;15.30;5.88;;;;;;;3.81;85.84;98824.00;4940123;28;20684;-69
2023/12/27 06:06:44;;;;;;;10.82;6.05;;;;;;;3.80;85.44;98828.50;4945215;28;20035;-71
2023/12/27 06:09:10;;;;;;;10.48;5.72;;;;;;;3.56;85.42;98788.03;4947069;29;20046;-72
2023/12/27 06:11:37;;;;;;;11.95;5.47;;;;;;;3.77;85.40;98828.88;4957062;28;20069;-72
2023/12/27 06:14:02;;;;;;;10.27;5.97;;;;;;;3.74;85.43;98833.72;4913477;28;20383;-72
2023/12/27 06:16:28;;;;;;;10.63;6.15;;;;;;;3.77;85.68;98828.88;4929999;29;20030;-72
2023/12/27 06:18:54;;;;;;;10.43;6.70;;;;;;;3.78;85.61;98832.38;4935842;28;20046;-72
2023/12/27 06:21:20;;;;;;;15.35;11.70;;;;;;;3.81;85.71;98818.66;4940615;28;20046;-70
2023/12/27 06:23:46;;;;;;;12.00;9.05;;;;;;;3.75;85.67;98812.25;4937392;29;20565;-72
2023/12/27 06:26:11;;;;;;;11.75;7.88;;;;;;;3.72;86.06;98801.97;4912578;29;20031;-72
2023/12/27 06:28:36;;;;;;;17.50;13.88;;;;;;;3.70;86.31;98796.00;4945645;28;20043;-71
2023/12/27 06:31:02;;;;;;;15.52;10.93;;;;;;;3.77;86.74;98823.56;4919731;28;20102;-71
2023/12/27 06:33:27;;;;;;;13.75;9.98;;;;;;;3.59;86.63;98793.81;4932508;29;20050;-73
2023/12/27 06:35:53;;;;;;;16.30;10.23;;;;;;;3.77;87.22;98828.88;4947043;28;20034;-69
2023/12/27 06:38:18;;;;;;;11.80;9.00;;;;;;;3.70;86.63;98824.47;4938460;28;20032;-71
2023/12/27 06:40:44;;;;;;;17.13;11.02;;;;;;;3.70;86.91;98827.97;4932025;29;20507;-72
2023/12/27 06:43:09;;;;;;;14.27;11.10;;;;;;;3.62;86.77;98820.06;4946019;28;20110;-74
2023/12/27 06:45:34;;;;;;;15.23;9.95;;;;;;;3.63;86.94;98827.06;4927080;29;20023;-71
2023/12/27 06:48:02;;;;;;;15.68;10.75;;;;;;;3.55;86.92;98824.47;4935810;28;20035;-74
2023/12/27 06:50:28;;;;;;;18.90;11.10;;;;;;;3.53;86.98;98825.66;4943518;28;20395;-71
2023/12/27 06:52:54;;;;;;;16.52;10.05;;;;;;;3.60;87.06;98843.41;4946867;28;20063;-71
2023/12/27 06:55:20;;;;;;;17.77;10.00;;;;;;;3.61;86.83;98834.41;4947600;28;20523;-72
2023/12/27 06:57:45;;;;;;;15.18;10.20;;;;;;;3.58;87.33;98832.09;4941679;28;20047;-75
2023/12/27 07:00:11;;;;;;;14.32;11.00;;;;;;;3.70;86.79;98841.28;4928574;28;20038;-69
2023/12/27 07:02:38;;;;;;;19.48;11.30;;;;;;;3.75;86.87;98838.91;4928893;29;20396;-72
2023/12/27 07:05:04;;;;;;;16.10;11.48;;;;;;;3.75;87.11;98825.56;4932671;28;20384;-69
2023/12/27 07:07:29;;;;;;;18.65;12.32;;;;;;;3.83;87.32;98819.28;4944760;28;20091;-71
2023/12/27 07:09:55;;;;;;;16.33;11.55;;;;;;;3.91;87.39;98817.38;4944831;28;20041;-72
2023/12/27 07:12:22;;;;;;;18.40;12.07;;;;;;;3.96;87.41;98822.97;4945494;28;20043;-75
2023/12/27 07:14:48;;;;;;;14.43;9.73;;;;;;;3.99;87.54;98811.91;4929714;29;20034;-72
2023/12/27 07:17:14;;;;;;;12.18;10.50;;;;;;;4.16;87.72;98824.00;4944176;28;20539;-71
2023/12/27 07:19:39;;;;;;;13.63;11.48;;;;;;;4.22;88.22;98818.94;4952558;28;20062;-72
2023/12/27 07:22:04;;;;;;;14.82;13.20;;;;;;;4.29;87.69;98822.50;4937781;28;20043;-72
2023/12/27 07:24:30;;;;;;;22.23;16.20;;;;;;;4.37;88.23;98819.72;4932586;28;20026;-72
2023/12/27 07:26:55;;;;;;;27.55;17.75;;;;;;;4.49;88.68;98820.88;4927607;28;20694;-73
2023/12/27 07:29:20;;;;;;;23.20;16.70;;;;;;;4.57;88.47;98816.25;4948002;28;20158;-72
2023/12/27 07:31:46;;;;;;;22.95;16.33;;;;;;;4.58;89.28;98817.03;4941407;28;20036;-72
2023/12/27 07:34:11;;;;;;;24.00;17.38;;;;;;;4.72;89.39;98821.50;4943396;28;20039;-72
2023/12/27 07:36:36;;;;;;;19.45;16.73;;;;;;;4.78;89.26;98828.75;4929253;28;20043;-72
2023/12/27 07:39:05;;;;;;;26.90;16.95;;;;;;;4.85;89.42;98821.63;4943279;28;20107;-72
2023/12/27 07:41:32;;;;;;;21.83;16.48;;;;;;;4.98;90.17;98819.03;4927065;29;20500;-73
2023/12/27 07:43:57;;;;;;;22.33;17.00;;;;;;;5.08;90.00;98824.88;4932734;29;20024;-71
2023/12/27 07:46:23;;;;;;;24.50;18.02;;;;;;;5.08;90.82;98808.88;4951580;28;20090;-72
2023/12/27 07:48:48;;;;;;;20.70;17.20;;;;;;;5.13;90.48;98817.13;4946334;28;20023;-73
2023/12/27 07:51:14;;;;;;;26.52;19.25;;;;;;;5.31;90.38;98825.44;4938810;28;20039;-72
2023/12/27 07:53:39;;;;;;;25.45;19.10;;;;;;;5.34;90.54;98825.06;4911341;29;20031;-73
2023/12/27 07:56:08;;;;;;;25.25;19.20;;;;;;;5.35;90.73;98817.88;4927241;29;20046;-72
2023/12/27 07:58:34;;;;;;;29.30;20.73;;;;;;;5.38;90.69;98831.66;4931109;29;20027;-73
2023/12/27 08:00:59;;;;;;;40.53;25.60;;;;;;;5.40;91.33;98829.63;4940728;28;20062;-71
2023/12/27 08:03:25;;;;;;;27.10;21.38;;;;;;;5.34;90.78;98819.72;4941995;28;20039;-70
2023/12/27 08:05:51;;;;;;;25.20;19.05;;;;;;;5.50;91.32;98846.13;4949556;28;20491;-69
2023/12/27 08:08:16;;;;;;;26.63;18.90;;;;;;;5.42;91.00;98832.09;4942484;28;20049;-71
2023/12/27 08:10:43;;;;;;;21.45;15.15;;;;;;;5.45;90.46;98848.56;4945977;28;20031;-72
2023/12/27 08:13:08;;;;;;;18.80;13.75;;;;;;;5.34;90.55;98835.75;4924788;28;20035;-72
2023/12/27 08:15:34;;;;;;;18.60;14.18;;;;;;;5.30;90.13;98834.47;4947989;28;20038;-71
2023/12/27 08:18:02;;;;;;;14.90;11.98;;;;;;;5.47;90.24;98867.88;4947146;28;20042;-73
2023/12/27 08:20:27;;;;;;;19.27;12.93;;;;;;;5.47;89.81;98862.53;4930081;29;20032;-70
2023/12/27 08:22:52;;;;;;;15.40;12.85;;;;;;;5.56;89.21;98877.38;4933653;28;20058;-72
2023/12/27 08:25:18;;;;;;;19.58;13.23;;;;;;;5.50;88.88;98853.31;4930915;28;20023;-71
2023/12/27 08:27:43;;;;;;;16.40;13.13;;;;;;;5.69;88.63;98873.16;4950792;28;20039;-71
2023/12/27 08:30:09;;;;;;;16.65;11.88;;;;;;;5.76;88.90;98880.19;4916668;28;20034;-73
2023/12/27 08:32:34;;;;;;;15.35;12.45;;;;;;;5.70;88.80;98862.25;4947869;28;20817;-72
2023/12/27 08:35:00;;;;;;;17.85;12.98;;;;;;;5.81;88.60;98868.91;4951534;28;20061;-72
2023/12/27 08:37:26;;;;;;;22.48;15.15;;;;;;;5.79;87.77;98860.28;4947169;28;20134;-69
2023/12/27 08:39:51;;;;;;;21.35;16.40;;;;;;;5.89;88.71;98868.75;4955590;28;20113;-72
2023/12/27 08:42:16;;;;;;;23.02;17.30;;;;;;;5.84;88.48;98847.13;4947053;28;20027;-72
2023/12/27 08:44:42;;;;;;;20.10;16.90;;;;;;;5.80;89.24;98828.00;4929052;28;20482;-71
2023/12/27 08:47:07;;;;;;;20.73;15.25;;;;;;;5.95;88.42;98855.44;4950670;28;20044;-72
2023/12/27 08:49:32;;;;;;;19.40;14.70;;;;;;;5.94;88.92;98860.97;4929871;28;20436;-73
2023/12/27 08:51:58;;;;;;;17.98;14.70;;;;;;;5.88;89.37;98853.75;4949189;28;20046;-71
2023/12/27 08:54:25;;;;;;;19.77;14.73;;;;;;;5.91;88.71;98850.69;4933788;29;20019;-72
2023/12/27 08:56:50;;;;;;;19.15;13.50;;;;;;;5.91;88.64;98853.34;4934032;29;20397;-72
2023/12/27 08:59:16;;;;;;;17.65;14.43;;;;;;;5.85;88.57;98843.47;4950038;28;20042;-72
2023/12/27 09:01:41;;;;;;;21.65;14.43;;;;;;;5.87;88.98;98841.41;4944466;28;20196;-71
2023/12/27 09:04:06;;;;;;;20.13;14.55;;;;;;;5.94;89.29;98842.28;4945303;28;20015;-69
2023/12/27 09:06:32;;;;;;;18.75;13.93;;;;;;;6.01;89.32;98837.78;4928824;29;20081;-71
2023/12/27 09:08:57;;;;;;;16.30;12.38;;;;;;;6.13;88.69;98847.72;4935367;28;20034;-73
2023/12/27 09:11:23;;;;;;;17.67;14.70;;;;;;;6.22;88.17;98856.38;4946654;28;20440;-72
2023/12/27 09:13:48;;;;;;;19.77;14.50;;;;;;;6.19;88.90;98849.56;4946025;28;20408;-71
2023/12/27 09:16:13;;;;;;;19.35;14.30;;;;;;;6.30;88.31;98842.84;4952390;28;20035;-72
2023/12/27 09:18:39;;;;;;;16.50;14.13;;;;;;;6.35;88.67;98845.69;4938958;29;20035;-72
2023/12/27 09:21:06;;;;;;;16.80;11.98;;;;;;;6.39;88.96;98844.28;4954649;28;20495;-71
2023/12/27 09:23:31;;;;;;;18.90;13.57;;;;;;;6.43;88.21;98816.09;4922339;29;20114;-72
2023/12/27 09:25:56;;;;;;;18.50;13.68;;;;;;;6.60;88.39;98830.75;4952501;28;20033;-72
2023/12/27 09:28:25;;;;;;;16.65;12.77;;;;;;;6.73;88.20;98822.72;4955619;28;20493;-72
2023/12/27 09:30:51;;;;;;;22.15;17.00;;;;;;;6.76;87.98;98819.66;4925001;28;20514;-69
2023/12/27 09:33:17;;;;;;;37.30;32.08;;;;;;;6.97;87.53;98830.19;4946080;28;20047;-70
2023/12/27 09:35:42;;;;;;;36.03;26.92;;;;;;;7.04;88.55;98819.47;4950320;28;20043;-72
2023/12/27 09:38:07;;;;;;;25.35;20.92;;;;;;;7.15;88.30;98815.31;4945316;29;20042;-71
2023/12/27 09:40:33;;;;;;;20.42;17.15;;;;;;;7.14;87.63;98800.28;4926451;29;20045;-72
2023/12/27 09:43:00;;;;;;;20.40;17.13;;;;;;;7.23;88.34;98796.38;4958572;28;20081;-71
2023/12/27 09:45:30;;;;;;;24.33;18.17;;;;;;;7.23;87.67;98780.28;4947401;28;20487;-69
2023/12/27 09:47:59;;;;;;;23.13;17.98;;;;;;;7.46;88.41;98792.22;4930531;29;20035;-72
2023/12/27 09:50:31;;;;;;;27.90;22.23;;;;;;;7.45;87.92;98768.28;4936075;28;20118;-70
2023/12/27 09:52:56;;;;;;;30.70;26.75;;;;;;;7.47;88.29;98755.50;4946856;28;20042;-71
2023/12/27 09:55:22;;;;;;;40.13;33.50;;;;;;;7.61;88.28;98773.19;4928329;28;20094;-72
2023/12/27 09:57:49;;;;;;;25.25;17.38;;;;;;;7.68;88.40;98770.50;4942494;28;20039;-72
2023/12/27 10:00:16;;;;;;;22.05;18.60;;;;;;;7.75;88.57;98764.06;4944304;28;20028;-71
2023/12/27 10:02:44;;;;;;;21.17;17.30;;;;;;;7.76;88.70;98755.00;4925359;28;20678;-72
2023/12/27 10:05:23;;;;;;;34.75;27.25;;;;;;;7.87;88.25;98757.00;4936577;28;20019;-71
2023/12/27 10:07:52;;;;;;;31.02;26.23;;;;;;;7.83;88.82;98734.34;4951801;28;20106;-73
2023/12/27 10:10:20;;;;;;;31.42;24.58;;;;;;;7.94;88.64;98740.88;4927091;28;20561;-70
2023/12/27 10:12:47;;;;;;;31.77;25.70;;;;;;;8.01;88.59;98742.50;4948548;28;20498;-72
2023/12/27 10:15:24;;;;;;;22.00;19.75;;;;;;;8.06;88.46;98728.44;4924738;28;20066;-72
2023/12/27 10:17:50;;;;;;;23.85;18.63;;;;;;;8.16;88.07;98723.44;4936498;28;20035;-73
2023/12/27 10:20:36;;;;;;;20.60;16.83;;;;;;;8.27;88.45;98728.94;4928209;28;20169;-72
2023/12/27 10:23:03;;;;;;;19.63;14.40;;;;;;;8.37;88.46;98714.22;4919907;28;20091;-72
2023/12/27 10:25:28;;;;;;;14.10;11.77;;;;;;;8.41;87.77;98699.31;4949255;28;20547;-72
2023/12/27 10:27:55;;;;;;;16.50;10.50;;;;;;;8.64;88.39;98704.94;4917007;29;20159;-72
2023/12/27 10:30:22;;;;;;;17.15;9.30;;;;;;;8.70;87.68;98688.78;4948396;28;20513;-72
2023/12/27 10:32:57;;;;;;;11.23;9.15;;;;;;;8.82;87.66;98702.31;4928662;28;20059;-71
2023/12/27 10:35:22;;;;;;;15.73;10.13;;;;;;;8.76;87.72;98679.00;4913060;29;20036;-72
2023/12/27 10:37:58;;;;;;;12.60;9.15;;;;;;;8.88;86.87;98693.34;4918440;28;20029;-73
2023/12/27 10:40:26;;;;;;;14.23;11.48;;;;;;;9.02;86.96;98700.25;4966179;28;20114;-72
2023/12/27 10:42:52;;;;;;;13.77;9.27;;;;;;;9.07;86.85;98695.03;4927567;28;20027;-71
2023/12/27 10:45:19;;;;;;;12.77;9.45;;;;;;;9.17;86.74;98689.16;4944430;28;20039;-71
2023/12/27 10:47:50;;;;;;;11.82;9.63;;;;;;;9.18;86.11;98664.72;4946470;28;20035;-71
2023/12/27 10:50:20;;;;;;;8.30;7.07;;;;;;;9.32;85.96;98676.97;4947989;28;20532;-71
2023/12/27 10:52:55;;;;;;;8.98;6.80;;;;;;;9.25;85.64;98673.53;4929414;29;20519;-72
2023/12/27 10:55:23;;;;;;;14.30;7.90;;;;;;;9.28;85.79;98670.41;4916736;29;20047;-71
2023/12/27 10:57:55;;;;;;;52.45;24.17;;;;;;;9.39;85.24;98676.88;4951163;28;20030;-71
2023/12/27 11:00:22;;;;;;;16.80;5.63;;;;;;;9.34;85.07;98674.88;4945274;28;20043;-71
2023/12/27 11:02:51;;;;;;;12.68;4.82;;;;;;;9.40;84.85;98667.78;4943701;28;20043;-72
2023/12/27 11:05:27;;;;;;;11.38;5.43;;;;;;;9.41;84.64;98659.50;4939863;28;20035;-71
2023/12/27 11:07:57;;;;;;;15.45;5.40;;;;;;;9.42;84.37;98644.19;4933690;28;20057;-72
2023/12/27 11:10:24;;;;;;;13.48;5.30;;;;;;;9.35;84.52;98643.44;4950678;28;20034;-72
2023/12/27 11:12:53;;;;;;;39.13;6.93;;;;;;;9.30;84.03;98641.44;4922962;29;20538;-71
2023/12/27 11:15:25;;;;;;;10.57;4.43;;;;;;;9.24;83.62;98636.94;4917724;29;20407;-72
2023/12/27 11:18:00;;;;;;;8.60;4.00;;;;;;;9.25;83.62;98629.72;4925628;29;20040;-72
2023/12/27 11:20:26;;;;;;;6.03;3.92;;;;;;;9.25;83.61;98630.53;4955289;28;20047;-72
2023/12/27 11:22:51;;;;;;;11.00;4.40;;;;;;;9.16;83.76;98623.81;4929791;28;20037;-72
2023/12/27 11:25:22;;;;;;;6.85;4.50;;;;;;;9.27;83.60;98630.31;4952266;28;20054;-72
2023/12/27 11:27:52;;;;;;;11.50;5.38;;;;;;;9.34;83.10;98628.34;4943138;28;20035;-72
2023/12/27 11:30:19;;;;;;;7.43;4.45;;;;;;;9.45;82.96;98633.78;4937483;29;20443;-74